Aérodrome :
LOGIN :

S'inscrire | Disclaimer

   EN    FR    IT 

 










Légende :    VFR   VFR Marginal   IFR   IFR Intensif   IFR Très Intensif
Visi : 
Plafond : 
>= 8 km
>= 3000ft
5 à 8 km
1000 à 3000 ft
1500m à 5 km
500 à 1000 ft
800 à 1500m
200 à 500 ft
< 800m
< 200 ft
Symboles :   Orages  Brouillard  Fortes neiges  Fortes précipitations  Vent > 20 kt
SIGMETs :   Divers  Orages  Givrage  Turbulence  Onde Orograph.  Cendres Volcan.







- Altitude de l'aérodrome : 74 ft
- Code IATA : EIN


EHEH - Eindhoven

DERNIER METAR :
  • 230625Z AUTO 23003KT 3700 BR OVC017 08/07 Q1029 GRN 24005KT 3500 BR SCT018 OVC020

METARs EXPIRÉS :
  • 230601Z AUTO 23003KT 3800 BR OVC018 08/06 Q1029 GRN 24005KT 3500 BR SCT018 OVC020
  • 230555Z AUTO 23003KT 220V330 4000 BR OVC018 08/06 Q1029 GRN 24005KT 3500 BR SCT018 OVC020
  • 230536Z AUTO 23002KT 3700 BR OVC018 08/06 Q1029 GRN 24005KT 3500 BR SCT018 OVC020
  • 230525Z AUTO 21004KT 3700 BR OVC019/// 08/06 Q1029 GRN 24005KT 3500 BR SCT018 OVC020
  • 230501Z AUTO 22004KT 3500 BR BKN016 OVC020 08/06 Q1028 YLO
  • 230448Z AUTO 21004KT 3800 BR OVC016 08/06 Q1028 GRN
  • 230425Z AUTO 22004KT 3300 BR OVC017 08/06 Q1028 YLO
  • 230355Z AUTO 21004KT 3300 BR OVC017 08/06 Q1028 YLO

TAF TAF EHEH
Valide du 23 à 06h jusqu'au 24 à 12h UTC


230555Z 2306/2412 VRB03KT 4000 BR FEW018 OVC020
BECMG 2306/2309 27005KT 7000 NSW
BECMG 2309/2311 33005KT
BECMG 2314/2316 03008KT
PROB40
TEMPO 2314/2317 FEW010 SCT015 BKN020
PROB30
TEMPO 2314/2316 SCT010 BKN015
PROB40 2403/2406 4000 BR MIFG
BECMG 2410/2412 33005KT
Pas de NOTAMs connus pour ce terrain.



MET'MAP, la Météo Aéronautique d'un coup d'oeil ! - Copyright ORBIFLY Décembre 2007 - Disclaimer

ORBIFLY MET'MAP TEAM :

Programmation & Développement : Alexandra Zaïnal
Conception & Développement : Baudouin d'Aumeries
Co-Programmation & Développement : Marc-Olivier Méhu
Soutien technique & logistique : Manuel Goepfert

Contact : metmap@orbifly.com




SOURCES & CREDITS :

   NOAA